Time;durP1;ratioP1;P1;durP2;ratioP2;P2;SDS_P1;SDS_P2;PMS_P1;PMS_P2;Temp;Humidity;BMP_temperature;BMP_pressure;BME280_temperature;BME280_humidity;BME280_pressure;Samples;Min_cycle;Max_cycle;Signal;HPM_P1;HPM_P2
2022/09/06 00:00:33;;;;;;;61.03;50.63;;;25.60;58.30;;;;;;4999563;27;90171;-50
2022/09/06 00:02:59;;;;;;;62.30;50.80;;;25.60;58.30;;;;;;5001408;27;92601;-49
2022/09/06 00:05:26;;;;;;;60.95;50.72;;;25.50;58.30;;;;;;5000577;27;91248;-54
2022/09/06 00:07:52;;;;;;;61.50;50.70;;;25.60;58.40;;;;;;5002717;27;92833;-51
2022/09/06 00:10:18;;;;;;;61.38;50.75;;;25.50;58.40;;;;;;5004644;27;90876;-51
2022/09/06 00:12:45;;;;;;;60.97;50.63;;;25.50;58.40;;;;;;4999917;27;92138;-54
2022/09/06 00:15:11;;;;;;;60.97;50.72;;;25.50;58.40;;;;;;4996602;27;91161;-52
2022/09/06 00:17:37;;;;;;;61.20;50.85;;;25.50;58.40;;;;;;5017492;27;91264;-51
2022/09/06 00:20:04;;;;;;;61.05;50.85;;;25.50;58.30;;;;;;5003770;27;98109;-52
2022/09/06 00:22:29;;;;;;;61.55;50.85;;;25.50;58.40;;;;;;4995931;27;95695;-52
2022/09/06 00:24:55;;;;;;;61.38;50.67;;;25.50;58.50;;;;;;5000279;27;90934;-49
2022/09/06 00:27:22;;;;;;;61.83;50.95;;;25.50;58.50;;;;;;5001861;27;90538;-52
2022/09/06 00:29:47;;;;;;;61.67;50.80;;;25.40;58.60;;;;;;4999879;27;97050;-52
2022/09/06 00:32:13;;;;;;;62.03;50.80;;;25.40;58.50;;;;;;5005902;27;89896;-52
2022/09/06 00:34:39;;;;;;;61.42;50.75;;;25.40;58.50;;;;;;5000846;27;91599;-50
2022/09/06 00:37:05;;;;;;;61.13;50.85;;;25.40;58.60;;;;;;5005903;27;92487;-52
2022/09/06 00:39:30;;;;;;;63.00;50.50;;;25.40;58.50;;;;;;4996716;27;91304;-49
2022/09/06 00:41:56;;;;;;;61.55;50.92;;;25.40;58.60;;;;;;4992462;27;90841;-53
2022/09/06 00:44:22;;;;;;;61.50;50.95;;;25.40;58.60;;;;;;5004772;27;91398;-53
2022/09/06 00:46:51;;;;;;;61.08;50.92;;;25.40;58.50;;;;;;5008100;27;90437;-50
2022/09/06 00:49:27;;;;;;;62.33;51.08;;;25.40;58.70;;;;;;4994395;27;97302;-51
2022/09/06 00:51:55;;;;;;;61.47;50.47;;;25.40;58.70;;;;;;5001915;27;91099;-49
2022/09/06 00:54:22;;;;;;;61.35;50.85;;;25.30;58.50;;;;;;5000405;27;90565;-50
2022/09/06 00:56:48;;;;;;;61.72;50.92;;;25.30;58.50;;;;;;5003311;27;96879;-53
2022/09/06 00:59:14;;;;;;;61.53;50.85;;;25.40;58.60;;;;;;4991206;27;92768;-53
2022/09/06 01:01:40;;;;;;;61.97;50.72;;;25.40;58.70;;;;;;4992675;27;95056;-49
2022/09/06 01:04:06;;;;;;;61.17;50.75;;;25.30;58.60;;;;;;5004470;27;92959;-54
2022/09/06 01:06:54;;;;;;;60.88;50.55;;;25.40;58.70;;;;;;5006992;27;90826;-51
2022/09/06 01:09:43;;;;;;;61.30;50.72;;;25.30;58.50;;;;;;5002358;27;92806;-50
2022/09/06 01:13:01;;;;;;;61.47;50.55;;;25.30;58.60;;;;;;4996978;27;91900;-49
2022/09/06 01:15:38;;;;;;;60.92;50.63;;;25.30;58.50;;;;;;4968840;27;90194;-55
2022/09/06 01:18:10;;;;;;;60.53;50.55;;;25.30;58.60;;;;;;5003757;27;91961;-50
2022/09/06 01:20:50;;;;;;;60.95;50.45;;;25.40;59.00;;;;;;5003874;27;93146;-50
2022/09/06 01:23:34;;;;;;;60.67;50.53;;;25.30;58.40;;;;;;5003008;27;97412;-50
2022/09/06 01:26:36;;;;;;;61.22;50.42;;;25.30;58.50;;;;;;4997639;27;91821;-53
2022/09/06 01:29:08;;;;;;;61.20;50.47;;;25.20;58.50;;;;;;5002137;27;95513;-49
2022/09/06 01:31:43;;;;;;;60.95;50.85;;;25.30;58.60;;;;;;4992592;27;91561;-54
2022/09/06 01:34:23;;;;;;;60.85;50.65;;;25.20;58.60;;;;;;5002377;27;90937;-53
2022/09/06 01:36:56;;;;;;;62.60;50.63;;;25.20;58.50;;;;;;4996238;27;91381;-51
2022/09/06 01:39:33;;;;;;;61.15;50.67;;;25.20;58.50;;;;;;4998285;27;93266;-52
2022/09/06 01:42:08;;;;;;;60.58;50.40;;;25.20;58.50;;;;;;5001956;27;96251;-49
2022/09/06 01:44:36;;;;;;;61.33;50.67;;;25.20;58.50;;;;;;4998159;27;91543;-52
2022/09/06 01:47:01;;;;;;;61.97;50.60;;;25.20;58.50;;;;;;5002987;27;93388;-50
2022/09/06 01:49:48;;;;;;;61.10;50.53;;;25.20;58.50;;;;;;5001357;27;92548;-52
2022/09/06 01:52:33;;;;;;;60.55;50.13;;;25.20;58.40;;;;;;5002539;27;91676;-52
2022/09/06 01:55:01;;;;;;;60.85;50.72;;;25.20;58.40;;;;;;5007392;27;91010;-54
2022/09/06 01:57:45;;;;;;;60.85;50.67;;;25.20;58.50;;;;;;5001276;27;96042;-50
2022/09/06 02:00:14;;;;;;;60.80;50.50;;;25.20;58.50;;;;;;5010379;27;93050;-53
2022/09/06 02:03:06;;;;;;;60.83;50.78;;;25.20;58.50;;;;;;5007709;27;92200;-51
2022/09/06 02:06:02;;;;;;;61.58;50.53;;;25.20;58.50;;;;;;5004256;27;93137;-52
2022/09/06 02:08:45;;;;;;;60.95;50.53;;;25.20;58.50;;;;;;5007883;27;90706;-51
2022/09/06 02:11:14;;;;;;;60.88;50.63;;;25.20;58.50;;;;;;5009894;27;90194;-53
2022/09/06 02:13:49;;;;;;;61.60;50.65;;;25.20;58.50;;;;;;5000907;27;91332;-53
2022/09/06 02:16:19;;;;;;;61.58;50.50;;;25.20;58.50;;;;;;4997643;27;96788;-49
2022/09/06 02:19:05;;;;;;;60.70;50.35;;;25.20;58.50;;;;;;5000913;27;91149;-51
2022/09/06 02:21:35;;;;;;;61.00;50.65;;;25.20;58.50;;;;;;4999439;27;90814;-52
2022/09/06 02:24:06;;;;;;;60.78;50.33;;;25.20;58.60;;;;;;5005039;27;92391;-51
2022/09/06 02:26:39;;;;;;;60.95;50.50;;;25.20;58.50;;;;;;5004740;27;90089;-54
2022/09/06 02:29:05;;;;;;;62.17;50.83;;;25.10;58.40;;;;;;4990453;27;93024;-51
2022/09/06 02:31:36;;;;;;;61.00;50.55;;;25.20;58.50;;;;;;5002044;27;93614;-51
2022/09/06 02:34:03;;;;;;;60.40;50.45;;;25.20;58.50;;;;;;5010765;27;90385;-53
2022/09/06 02:36:30;;;;;;;61.00;50.55;;;25.10;58.50;;;;;;4999297;27;90369;-53
2022/09/06 02:38:59;;;;;;;60.65;50.40;;;25.10;58.50;;;;;;5005848;27;90246;-51
2022/09/06 02:41:25;;;;;;;60.67;50.70;;;25.10;58.50;;;;;;5004555;27;90310;-53
2022/09/06 02:43:51;;;;;;;61.00;50.65;;;25.10;58.50;;;;;;5006495;27;95346;-51
2022/09/06 02:46:17;;;;;;;60.80;50.60;;;25.10;58.50;;;;;;5001671;27;91035;-52
2022/09/06 02:48:42;;;;;;;60.47;50.53;;;25.10;58.50;;;;;;5001447;27;95427;-53
2022/09/06 02:51:09;;;;;;;60.40;50.40;;;25.10;58.50;;;;;;5008452;27;89952;-54
2022/09/06 02:53:35;;;;;;;61.17;50.85;;;25.10;58.50;;;;;;5004067;27;93323;-53
2022/09/06 02:56:01;;;;;;;61.60;50.53;;;25.10;58.60;;;;;;5008132;27;90833;-52
2022/09/06 02:58:27;;;;;;;61.25;50.30;;;25.00;58.60;;;;;;5005519;27;90671;-54
2022/09/06 03:00:53;;;;;;;60.92;50.63;;;25.10;58.60;;;;;;5006104;27;91349;-53
2022/09/06 03:03:22;;;;;;;60.72;50.50;;;25.00;58.60;;;;;;4999106;27;92213;-51
2022/09/06 03:05:49;;;;;;;61.47;50.53;;;25.00;58.50;;;;;;5003528;27;90913;-51
2022/09/06 03:08:20;;;;;;;60.60;50.33;;;25.00;58.50;;;;;;5003664;27;90546;-52
2022/09/06 03:10:54;;;;;;;61.70;50.63;;;25.00;58.60;;;;;;5005202;27;94044;-54
2022/09/06 03:13:21;;;;;;;60.53;50.33;;;25.00;58.50;;;;;;5000595;27;91447;-53
2022/09/06 03:15:54;;;;;;;60.72;50.35;;;25.00;58.60;;;;;;5000860;27;92285;-52
2022/09/06 03:18:21;;;;;;;61.28;50.55;;;25.00;58.60;;;;;;4996372;27;91932;-52
2022/09/06 03:20:49;;;;;;;60.53;50.38;;;25.00;58.60;;;;;;4997920;27;90200;-50
2022/09/06 03:23:14;;;;;;;60.33;50.33;;;25.00;58.60;;;;;;5004508;27;94692;-50
2022/09/06 03:25:41;;;;;;;60.15;50.35;;;25.00;58.60;;;;;;5003015;27;92076;-51
2022/09/06 03:28:07;;;;;;;60.45;50.40;;;25.00;58.60;;;;;;5001201;27;90271;-51
2022/09/06 03:30:33;;;;;;;61.10;50.33;;;25.00;58.60;;;;;;5015363;27;89715;-51
2022/09/06 03:32:59;;;;;;;60.45;50.25;;;25.00;58.70;;;;;;5009996;27;91404;-51
2022/09/06 03:35:24;;;;;;;60.42;50.25;;;25.00;58.60;;;;;;5000843;27;91534;-54
2022/09/06 03:37:50;;;;;;;60.65;50.65;;;25.00;58.60;;;;;;4998431;27;91084;-50
2022/09/06 03:40:16;;;;;;;60.60;50.63;;;25.00;58.60;;;;;;5000976;27;90180;-50
2022/09/06 03:42:41;;;;;;;60.22;50.35;;;25.00;58.70;;;;;;5002883;27;91965;-53
2022/09/06 03:45:07;;;;;;;60.30;50.25;;;24.90;58.60;;;;;;5005725;27;93091;-55
2022/09/06 03:47:33;;;;;;;60.70;50.50;;;24.90;58.60;;;;;;4996383;27;89855;-49
2022/09/06 03:49:59;;;;;;;60.83;50.50;;;24.90;58.70;;;;;;5006145;27;90368;-52
2022/09/06 03:52:24;;;;;;;60.13;50.28;;;24.90;58.70;;;;;;5003947;27;92128;-53
2022/09/06 03:54:50;;;;;;;60.72;50.42;;;24.90;58.70;;;;;;4985186;28;94866;-51
2022/09/06 03:57:16;;;;;;;60.05;50.15;;;24.90;58.70;;;;;;5003689;27;89916;-53
2022/09/06 03:59:41;;;;;;;60.28;50.25;;;24.90;58.80;;;;;;4997797;27;93014;-50
2022/09/06 04:02:07;;;;;;;60.85;50.08;;;24.90;58.70;;;;;;4996393;27;94405;-53
2022/09/06 04:04:33;;;;;;;60.35;50.30;;;24.90;58.70;;;;;;4999287;27;92580;-50
2022/09/06 04:06:58;;;;;;;60.30;50.25;;;24.90;58.70;;;;;;5007776;27;92321;-50
2022/09/06 04:09:24;;;;;;;59.92;50.15;;;24.90;59.30;;;;;;4997272;27;92907;-50
2022/09/06 04:11:50;;;;;;;59.95;50.40;;;24.90;58.70;;;;;;4994237;27;92128;-54
2022/09/06 04:14:15;;;;;;;60.40;50.25;;;24.90;58.70;;;;;;4990942;27;91455;-52
2022/09/06 04:16:41;;;;;;;60.53;50.42;;;24.90;58.80;;;;;;5009164;28;89730;-52
2022/09/06 04:19:07;;;;;;;61.40;50.45;;;24.90;58.80;;;;;;5010413;27;96557;-50
2022/09/06 04:21:33;;;;;;;61.20;50.58;;;24.80;58.70;;;;;;5000304;27;91320;-49
2022/09/06 04:23:58;;;;;;;60.70;50.03;;;24.90;58.70;;;;;;5011508;27;89891;-51
2022/09/06 04:26:24;;;;;;;61.38;50.38;;;24.90;58.70;;;;;;5004792;27;94967;-50
2022/09/06 04:28:50;;;;;;;60.72;50.42;;;24.90;58.80;;;;;;5003713;27;91460;-49
2022/09/06 04:31:15;;;;;;;61.20;50.33;;;24.80;58.80;;;;;;4999275;27;92403;-53
2022/09/06 04:33:41;;;;;;;62.65;50.75;;;24.80;58.80;;;;;;5002958;27;90896;-53
2022/09/06 04:36:09;;;;;;;63.13;50.70;;;24.80;58.80;;;;;;4999859;27;92576;-50
2022/09/06 04:38:37;;;;;;;61.25;50.33;;;24.80;58.80;;;;;;5005378;27;91116;-50
2022/09/06 04:41:03;;;;;;;63.92;50.85;;;24.80;58.80;;;;;;5004759;27;91117;-50
2022/09/06 04:43:29;;;;;;;61.78;50.60;;;24.80;58.90;;;;;;5003987;27;92924;-50
2022/09/06 04:45:55;;;;;;;63.47;51.15;;;24.80;58.80;;;;;;5010731;28;91037;-53
2022/09/06 04:48:20;;;;;;;63.20;51.35;;;24.80;58.80;;;;;;5002732;28;90380;-52
2022/09/06 04:50:46;;;;;;;63.67;51.40;;;24.80;58.70;;;;;;5010928;27;91146;-53
2022/09/06 04:53:12;;;;;;;66.97;51.75;;;24.80;58.80;;;;;;5010573;28;94718;-52
2022/09/06 04:55:37;;;;;;;65.22;51.60;;;24.80;58.70;;;;;;5003622;27;92280;-53
2022/09/06 04:58:04;;;;;;;65.40;52.25;;;24.80;58.80;;;;;;5003547;28;90507;-50
2022/09/06 05:00:32;;;;;;;68.32;52.97;;;24.80;58.80;;;;;;5004021;27;91997;-50
2022/09/06 05:02:58;;;;;;;72.78;53.22;;;24.80;58.80;;;;;;5003526;27;97030;-53
2022/09/06 05:05:24;;;;;;;72.95;53.67;;;24.70;58.70;;;;;;5006083;27;90566;-49
2022/09/06 05:07:54;;;;;;;71.70;54.05;;;24.70;58.80;;;;;;5012441;28;89771;-51
2022/09/06 05:10:21;;;;;;;73.43;53.97;;;24.80;58.90;;;;;;5009959;27;91053;-49
2022/09/06 05:12:48;;;;;;;73.88;53.80;;;24.80;58.90;;;;;;5009604;27;91450;-49
2022/09/06 05:15:15;;;;;;;74.40;53.70;;;24.80;58.90;;;;;;5000967;28;92606;-51
2022/09/06 05:17:41;;;;;;;70.75;53.22;;;24.80;58.80;;;;;;5010803;28;91003;-51
2022/09/06 05:20:07;;;;;;;74.78;55.33;;;24.70;58.60;;;;;;5006447;27;92045;-52
2022/09/06 05:22:33;;;;;;;82.63;57.15;;;24.70;58.80;;;;;;5008377;27;91911;-51
2022/09/06 05:24:58;;;;;;;84.82;58.05;;;24.70;58.70;;;;;;5004655;28;90739;-53
2022/09/06 05:27:24;;;;;;;94.63;59.67;;;24.70;58.70;;;;;;5010008;28;90466;-51
2022/09/06 05:29:50;;;;;;;91.43;59.20;;;24.70;58.90;;;;;;4999978;28;93544;-49
2022/09/06 05:32:16;;;;;;;86.97;58.42;;;24.70;58.90;;;;;;5000101;27;90121;-51
2022/09/06 05:34:41;;;;;;;87.03;58.95;;;24.70;59.00;;;;;;5006501;28;91007;-51
2022/09/06 05:37:07;;;;;;;88.65;58.72;;;24.70;58.80;;;;;;5000931;27;93502;-50
2022/09/06 05:39:33;;;;;;;83.35;57.05;;;24.70;58.70;;;;;;5002943;28;92186;-53
2022/09/06 05:41:59;;;;;;;82.20;56.78;;;24.70;59.00;;;;;;4997677;28;91922;-50
2022/09/06 05:44:25;;;;;;;78.93;56.80;;;24.70;58.70;;;;;;5003080;28;91293;-50
2022/09/06 05:46:51;;;;;;;81.35;57.33;;;24.70;58.90;;;;;;5002674;28;90065;-54
2022/09/06 05:49:17;;;;;;;81.93;57.20;;;24.70;58.90;;;;;;5006384;27;91140;-52
2022/09/06 05:51:42;;;;;;;83.38;57.28;;;24.70;59.10;;;;;;5007920;27;93877;-51
2022/09/06 05:54:10;;;;;;;86.47;57.47;;;24.80;58.90;;;;;;5006476;27;90224;-50
2022/09/06 05:56:36;;;;;;;79.45;56.10;;;24.70;59.00;;;;;;5011724;27;92942;-50
2022/09/06 05:59:03;;;;;;;77.03;55.90;;;24.70;59.00;;;;;;5000949;27;91217;-52
2022/09/06 06:01:29;;;;;;;75.40;55.78;;;24.70;59.00;;;;;;5008560;28;91310;-51
2022/09/06 06:04:04;;;;;;;74.93;56.05;;;24.70;59.00;;;;;;5004645;28;91811;-53
2022/09/06 06:06:31;;;;;;;77.57;55.42;;;24.70;58.90;;;;;;5005113;28;91210;-53
2022/09/06 06:08:58;;;;;;;78.05;55.30;;;24.80;59.00;;;;;;5002661;28;92249;-51
2022/09/06 06:11:24;;;;;;;80.13;54.85;;;24.80;59.00;;;;;;5003203;28;92324;-53
2022/09/06 06:13:51;;;;;;;72.30;54.50;;;24.80;58.90;;;;;;5002256;28;93672;-51
2022/09/06 06:16:19;;;;;;;72.38;54.63;;;24.70;59.00;;;;;;5008709;27;90530;-52
2022/09/06 06:18:45;;;;;;;75.82;54.58;;;24.70;59.00;;;;;;5004864;28;91218;-50
2022/09/06 06:21:15;;;;;;;71.32;53.55;;;24.70;58.80;;;;;;5015938;27;92910;-49
2022/09/06 06:23:43;;;;;;;70.57;53.40;;;24.70;58.70;;;;;;5014619;27;91252;-52
2022/09/06 06:26:09;;;;;;;66.93;52.30;;;24.70;58.70;;;;;;5000922;28;94564;-53
2022/09/06 06:28:36;;;;;;;66.95;52.20;;;24.70;58.50;;;;;;5004856;27;90766;-53
2022/09/06 06:31:03;;;;;;;64.60;51.17;;;24.70;58.40;;;;;;4995185;27;92397;-51
2022/09/06 06:33:29;;;;;;;62.53;51.13;;;24.70;58.30;;;;;;5006053;27;90792;-50
2022/09/06 06:35:59;;;;;;;63.40;51.53;;;24.70;58.20;;;;;;5003431;27;90145;-52
2022/09/06 06:38:36;;;;;;;61.80;51.25;;;24.70;58.50;;;;;;5002759;28;91312;-50
2022/09/06 06:41:04;;;;;;;61.63;51.00;;;24.60;58.50;;;;;;5010696;27;90950;-52
2022/09/06 06:43:35;;;;;;;65.38;50.92;;;24.60;58.40;;;;;;5003372;27;90312;-53
2022/09/06 06:46:05;;;;;;;61.75;51.00;;;24.60;58.40;;;;;;5002814;28;94915;-49
2022/09/06 06:48:31;;;;;;;62.33;50.40;;;24.60;58.50;;;;;;5009396;28;95416;-50
2022/09/06 06:50:57;;;;;;;62.05;50.95;;;24.60;58.40;;;;;;5009139;27;90970;-53
2022/09/06 06:53:23;;;;;;;62.00;50.97;;;24.60;58.70;;;;;;5015025;27;89907;-51
2022/09/06 06:55:48;;;;;;;62.72;50.80;;;24.50;58.90;;;;;;4994594;28;90776;-50
2022/09/06 06:58:17;;;;;;;63.38;50.85;;;24.50;59.00;;;;;;5001667;28;92270;-51
2022/09/06 07:00:44;;;;;;;64.40;51.05;;;24.20;59.70;;;;;;5004690;28;91615;-49
2022/09/06 07:03:10;;;;;;;64.05;50.65;;;24.00;60.70;;;;;;5006647;28;92059;-52
2022/09/06 07:05:37;;;;;;;60.58;50.63;;;23.90;61.50;;;;;;5006958;28;95372;-52
2022/09/06 07:08:06;;;;;;;61.55;50.38;;;23.80;62.20;;;;;;5004120;28;91530;-51
2022/09/06 07:10:32;;;;;;;63.20;50.65;;;23.70;62.50;;;;;;5010979;28;91328;-52
2022/09/06 07:12:58;;;;;;;63.15;50.85;;;23.70;62.40;;;;;;5000778;27;93948;-50
2022/09/06 07:15:23;;;;;;;62.03;50.85;;;23.70;62.90;;;;;;5002856;28;89803;-52
2022/09/06 07:17:49;;;;;;;62.50;50.88;;;23.60;63.00;;;;;;5006274;28;91100;-51
2022/09/06 07:20:15;;;;;;;61.92;50.95;;;23.60;63.30;;;;;;5013644;27;91797;-53
2022/09/06 07:22:41;;;;;;;63.05;51.05;;;23.60;63.30;;;;;;5003416;27;91356;-50
2022/09/06 07:25:08;;;;;;;61.90;50.90;;;23.50;63.70;;;;;;5001471;28;90535;-49
2022/09/06 07:27:34;;;;;;;62.70;50.95;;;23.60;64.00;;;;;;5008843;27;91058;-51
2022/09/06 07:30:00;;;;;;;61.67;51.10;;;23.60;64.40;;;;;;5004065;27;91685;-51
2022/09/06 07:32:25;;;;;;;62.30;51.50;;;23.70;64.00;;;;;;4999253;27;89807;-50
2022/09/06 07:34:51;;;;;;;64.72;51.58;;;23.80;63.60;;;;;;4999884;27;93951;-50
2022/09/06 07:37:17;;;;;;;63.67;51.42;;;23.80;64.50;;;;;;5011651;27;91426;-50
2022/09/06 07:39:43;;;;;;;62.60;51.30;;;23.80;64.00;;;;;;5007556;27;91290;-49
2022/09/06 07:42:09;;;;;;;64.15;51.50;;;23.80;64.40;;;;;;5008259;27;90384;-49
2022/09/06 07:44:35;;;;;;;61.70;51.20;;;23.90;64.20;;;;;;5011832;27;90316;-51
2022/09/06 07:47:06;;;;;;;64.53;52.08;;;23.90;64.10;;;;;;5019253;27;92234;-54
2022/09/06 07:49:33;;;;;;;64.30;51.72;;;23.90;64.20;;;;;;5018213;27;91890;-52
2022/09/06 07:51:58;;;;;;;62.75;51.40;;;23.90;64.10;;;;;;5015455;27;89933;-52
2022/09/06 07:54:24;;;;;;;62.03;51.55;;;23.90;63.90;;;;;;5012903;28;93165;-49
2022/09/06 07:56:49;;;;;;;63.85;52.00;;;23.90;64.50;;;;;;5013818;27;91337;-52
2022/09/06 07:59:15;;;;;;;64.55;51.65;;;23.90;64.30;;;;;;5007734;28;91724;-48
2022/09/06 08:01:41;;;;;;;65.97;51.83;;;23.90;64.50;;;;;;5008447;27;96366;-48
2022/09/06 08:04:12;;;;;;;63.05;51.83;;;23.90;64.90;;;;;;5014602;27;89250;-49
2022/09/06 08:06:41;;;;;;;;;;;23.80;64.60;;;;;;5014768;27;91292;-49
2022/09/06 08:09:08;;;;;;;64.22;52.03;;;23.80;65.20;;;;;;5014339;28;90608;-54
2022/09/06 08:11:35;;;;;;;64.68;52.03;;;23.90;64.60;;;;;;5015026;27;90486;-50
2022/09/06 08:14:04;;;;;;;63.25;51.65;;;23.90;64.50;;;;;;5010192;28;92408;-51
2022/09/06 08:16:31;;;;;;;62.58;51.65;;;23.90;64.50;;;;;;5017281;27;91191;-51
2022/09/06 08:18:59;;;;;;;62.65;51.55;;;24.00;64.20;;;;;;5003704;27;92043;-52
2022/09/06 08:21:27;;;;;;;65.20;52.03;;;24.00;64.40;;;;;;5003710;27;90814;-50
2022/09/06 08:23:58;;;;;;;63.15;51.65;;;24.00;64.80;;;;;;5008243;27;89945;-49
2022/09/06 08:26:25;;;;;;;62.58;51.55;;;24.00;66.00;;;;;;5010805;27;91104;-50
2022/09/06 08:28:56;;;;;;;64.75;51.83;;;24.10;64.60;;;;;;5007689;28;90710;-52
2022/09/06 08:31:22;;;;;;;64.75;51.72;;;24.10;64.90;;;;;;5006735;27;90300;-49
2022/09/06 08:33:48;;;;;;;66.20;51.97;;;24.20;64.40;;;;;;5005681;27;90181;-54
2022/09/06 08:36:14;;;;;;;64.72;51.90;;;24.20;64.50;;;;;;5013110;27;90976;-49
2022/09/06 08:38:40;;;;;;;67.40;52.13;;;24.20;65.20;;;;;;5007673;28;94086;-51
2022/09/06 08:41:09;;;;;;;66.40;51.78;;;24.20;64.30;;;;;;5008585;27;90089;-51
2022/09/06 08:43:35;;;;;;;65.13;51.95;;;24.20;63.50;;;;;;5010975;28;90290;-49
2022/09/06 08:46:03;;;;;;;66.50;51.83;;;24.30;64.00;;;;;;5013250;27;91906;-48
2022/09/06 08:48:32;;;;;;;64.68;52.05;;;24.30;63.90;;;;;;5005249;27;92854;-51
2022/09/06 08:51:25;;;;;;;63.67;51.42;;;24.40;63.60;;;;;;5009967;27;93891;-49
2022/09/06 08:53:57;;;;;;;62.53;51.53;;;24.40;63.70;;;;;;5005683;27;92347;-49
2022/09/06 08:56:33;;;;;;;64.43;52.05;;;24.40;63.80;;;;;;5009646;28;90122;-52
2022/09/06 08:59:12;;;;;;;62.20;51.67;;;24.50;63.20;;;;;;5012147;27;90862;-51
2022/09/06 09:02:09;;;;;;;64.68;51.38;;;24.40;63.10;;;;;;5011186;27;90887;-51
2022/09/06 09:04:40;;;;;;;62.30;51.65;;;24.50;63.10;;;;;;5016544;28;89920;-49
2022/09/06 09:07:44;;;;;;;62.53;51.42;;;24.50;63.00;;;;;;5010566;27;95795;-49
2022/09/06 09:10:25;;;;;;;63.35;51.42;;;24.60;62.60;;;;;;5013792;28;91570;-52
2022/09/06 09:12:50;;;;;;;65.18;51.33;;;24.50;62.50;;;;;;5017680;28;89612;-53
2022/09/06 09:15:19;;;;;;;65.15;51.75;;;24.50;62.20;;;;;;5003773;28;92124;-52
2022/09/06 09:17:47;;;;;;;63.63;51.83;;;24.60;62.60;;;;;;5004242;27;93581;-48
2022/09/06 09:20:13;;;;;;;63.55;51.85;;;24.50;62.80;;;;;;5007274;27;91054;-50
2022/09/06 09:22:40;;;;;;;65.05;51.70;;;24.60;62.20;;;;;;5009073;27;90497;-49
2022/09/06 09:25:07;;;;;;;66.80;51.63;;;24.60;62.10;;;;;;5001773;27;90169;-50
2022/09/06 09:27:34;;;;;;;65.00;51.97;;;24.70;61.50;;;;;;5003696;28;92053;-49
2022/09/06 09:30:05;;;;;;;63.03;51.53;;;24.70;61.50;;;;;;5009474;28;92677;-51
2022/09/06 09:32:30;;;;;;;65.03;51.50;;;24.70;61.70;;;;;;5005861;27;89897;-48
2022/09/06 09:35:31;;;;;;;63.20;51.80;;;24.70;62.00;;;;;;5007362;27;91617;-49
2022/09/06 09:38:11;;;;;;;65.15;51.92;;;24.70;61.90;;;;;;5008857;28;90280;-50
2022/09/06 09:40:40;;;;;;;65.95;51.58;;;24.70;61.90;;;;;;5014983;27;89947;-51
2022/09/06 09:43:23;;;;;;;64.25;51.55;;;24.80;61.70;;;;;;4999427;27;94609;-54
2022/09/06 09:46:09;;;;;;;65.05;51.65;;;24.80;61.50;;;;;;5004219;28;90153;-49
2022/09/06 09:48:36;;;;;;;65.10;51.53;;;24.80;61.50;;;;;;5008576;28;91784;-50
2022/09/06 09:51:23;;;;;;;65.70;51.60;;;24.90;61.00;;;;;;5014290;27;90767;-52
2022/09/06 09:53:57;;;;;;;66.63;51.75;;;25.00;61.50;;;;;;5012713;27;94463;-48
2022/09/06 09:56:40;;;;;;;64.82;51.83;;;25.00;61.20;;;;;;5015283;27;90369;-53
2022/09/06 09:59:16;;;;;;;64.50;51.45;;;25.00;60.90;;;;;;5002733;27;89860;-52
2022/09/06 10:01:42;;;;;;;63.45;51.33;;;24.90;60.90;;;;;;5009478;27;91167;-51
2022/09/06 10:04:15;;;;;;;63.88;51.50;;;24.90;60.90;;;;;;5009867;28;91612;-50
2022/09/06 10:06:42;;;;;;;62.10;51.42;;;25.00;60.30;;;;;;5013740;27;90357;-53
2022/09/06 10:10:06;;;;;;;64.50;51.53;;;25.10;60.30;;;;;;5017318;27;90192;-52
2022/09/06 10:12:37;;;;;;;63.72;51.55;;;25.10;60.30;;;;;;4989421;28;94406;-54
2022/09/06 10:15:04;;;;;;;;;;;25.10;60.50;;;;;;5006120;27;90638;-51
2022/09/06 10:17:33;;;;;;;63.80;51.63;;;25.10;59.90;;;;;;5016687;28;89935;-49
2022/09/06 10:20:03;;;;;;;62.60;51.00;;;25.20;58.90;;;;;;5003925;27;92014;-49
2022/09/06 10:22:34;;;;;;;67.82;51.47;;;25.20;59.70;;;;;;5003187;27;92201;-51
2022/09/06 10:25:21;;;;;;;64.03;50.97;;;25.10;59.40;;;;;;5014656;28;89747;-50
2022/09/06 10:28:25;;;;;;;63.05;51.55;;;25.10;59.60;;;;;;5001158;28;91359;-50
2022/09/06 10:31:01;;;;;;;62.83;51.53;;;25.20;59.90;;;;;;5003968;28;90172;-50
2022/09/06 10:33:53;;;;;;;69.13;51.53;;;25.20;59.20;;;;;;5006520;28;95694;-51
2022/09/06 10:36:27;;;;;;;65.35;51.42;;;25.20;59.10;;;;;;5016615;28;90232;-50
2022/09/06 10:38:54;;;;;;;64.80;52.05;;;25.30;59.00;;;;;;5006848;27;89985;-50
2022/09/06 10:41:48;;;;;;;65.50;51.70;;;25.40;58.70;;;;;;5011450;28;93297;-50
2022/09/06 10:44:28;;;;;;;64.38;51.30;;;25.40;58.90;;;;;;5007445;28;90884;-51
2022/09/06 10:47:11;;;;;;;64.72;51.40;;;25.40;59.10;;;;;;5011020;28;91852;-52
2022/09/06 10:49:53;;;;;;;65.88;51.70;;;25.50;58.70;;;;;;4999074;27;91947;-52
2022/09/06 10:52:33;;;;;;;63.60;51.42;;;25.60;58.90;;;;;;4992881;27;93179;-53
2022/09/06 10:55:04;;;;;;;63.85;51.63;;;25.60;58.40;;;;;;5007417;28;90911;-52
2022/09/06 10:57:51;;;;;;;;;;;25.50;58.50;;;;;;5010057;28;93931;-50
2022/09/06 11:00:17;;;;;;;63.92;51.63;;;25.50;58.50;;;;;;5009632;27;90082;-50
2022/09/06 11:03:00;;;;;;;63.67;51.30;;;25.60;58.60;;;;;;5011205;28;91111;-52
2022/09/06 11:05:36;;;;;;;64.20;51.63;;;25.60;58.60;;;;;;5014574;27;93937;-54
2022/09/06 11:08:08;;;;;;;63.25;51.47;;;25.60;58.30;;;;;;5004462;28;90817;-52
2022/09/06 11:10:36;;;;;;;62.83;51.47;;;25.60;58.30;;;;;;5005424;27;94751;-53
2022/09/06 11:13:09;;;;;;;64.80;51.58;;;25.70;58.40;;;;;;5001165;27;92268;-50
2022/09/06 11:15:40;;;;;;;63.35;51.47;;;25.70;57.90;;;;;;5002409;27;92125;-48
2022/09/06 11:18:18;;;;;;;65.63;51.63;;;25.80;57.20;;;;;;5013114;28;89857;-50
2022/09/06 11:21:22;;;;;;;65.75;51.92;;;25.70;56.80;;;;;;5011933;28;93193;-49
2022/09/06 11:24:00;;;;;;;63.33;51.42;;;25.80;57.50;;;;;;5007583;28;90977;-49
2022/09/06 11:26:41;;;;;;;64.80;51.53;;;25.70;57.40;;;;;;5011350;28;90685;-52
2022/09/06 11:29:09;;;;;;;;;;;25.70;57.00;;;;;;5010710;27;91126;-51
2022/09/06 11:31:53;;;;;;;63.75;51.50;;;25.80;57.30;;;;;;5012099;28;91088;-51
2022/09/06 11:34:29;;;;;;;64.93;51.67;;;25.80;57.20;;;;;;5015506;28;90108;-54
2022/09/06 11:36:56;;;;;;;66.78;51.67;;;25.80;57.20;;;;;;5011549;28;90324;-52
2022/09/06 11:39:30;;;;;;;66.03;51.85;;;25.90;56.60;;;;;;5011898;27;90843;-52
2022/09/06 11:41:56;;;;;;;66.88;51.83;;;25.90;56.90;;;;;;5012023;28;89927;-52
2022/09/06 11:44:55;;;;;;;65.68;51.65;;;26.00;56.60;;;;;;5003885;27;93972;-49
2022/09/06 11:47:39;;;;;;;64.55;51.67;;;25.90;56.30;;;;;;5007635;28;91056;-51
2022/09/06 11:50:20;;;;;;;66.47;52.08;;;26.00;55.80;;;;;;5006544;27;93227;-52
2022/09/06 11:53:15;;;;;;;64.60;51.97;;;25.90;55.50;;;;;;5010072;27;90937;-49
2022/09/06 11:55:50;;;;;;;64.53;51.85;;;26.00;56.20;;;;;;5014558;28;91417;-52
2022/09/06 11:58:15;;;;;;;65.85;52.00;;;26.00;56.00;;;;;;5010125;27;90292;-49
2022/09/06 12:00:42;;;;;;;66.40;51.70;;;26.00;55.60;;;;;;5023696;27;89818;-52
2022/09/06 12:03:29;;;;;;;66.85;52.20;;;26.00;55.90;;;;;;5011336;28;90123;-51
2022/09/06 12:06:16;;;;;;;65.25;51.92;;;26.00;55.70;;;;;;5016926;28;94668;-53
2022/09/06 12:08:42;;;;;;;64.78;51.88;;;26.00;55.80;;;;;;5012216;28;91735;-51
2022/09/06 12:11:31;;;;;;;63.45;51.75;;;26.00;55.90;;;;;;5009279;27;91145;-54
2022/09/06 12:13:58;;;;;;;65.95;52.05;;;26.10;55.70;;;;;;5003215;28;96998;-53
2022/09/06 12:16:44;;;;;;;66.47;52.05;;;26.10;55.60;;;;;;5010956;27;91859;-52
2022/09/06 12:19:48;;;;;;;65.50;51.75;;;26.10;55.30;;;;;;5012735;28;90971;-50
2022/09/06 12:22:45;;;;;;;64.72;51.67;;;26.10;54.90;;;;;;5014834;27;90120;-54
2022/09/06 12:25:41;;;;;;;64.18;51.88;;;26.10;54.50;;;;;;5003706;28;89307;-50
2022/09/06 12:28:20;;;;;;;63.88;51.65;;;26.20;55.10;;;;;;5014443;28;92013;-51
2022/09/06 12:30:48;;;;;;;67.13;51.80;;;26.10;55.30;;;;;;5006239;28;91654;-52
2022/09/06 12:33:20;;;;;;;64.78;51.75;;;26.20;55.30;;;;;;5009480;27;90906;-53
2022/09/06 12:35:46;;;;;;;65.18;51.67;;;26.20;55.10;;;;;;5013724;27;92283;-50
2022/09/06 12:38:14;;;;;;;67.00;52.17;;;26.20;55.60;;;;;;5004512;28;91201;-53
2022/09/06 12:40:46;;;;;;;64.45;51.60;;;26.20;55.00;;;;;;5009396;28;91163;-53
2022/09/06 12:43:15;;;;;;;65.05;51.97;;;26.20;54.60;;;;;;5010273;27;90399;-51
2022/09/06 12:45:43;;;;;;;64.60;51.83;;;26.20;54.40;;;;;;5018069;28;93279;-52
2022/09/06 12:48:12;;;;;;;64.82;51.95;;;26.30;54.50;;;;;;5014100;28;91748;-54